createdAt,value
2023-04-27T00:03:31.001Z,3.03
2023-04-27T00:08:36.507Z,2.90
2023-04-27T00:13:40.169Z,3.13
2023-04-27T00:18:43.853Z,3.27
2023-04-27T00:23:49.053Z,3.00
2023-04-27T00:28:52.534Z,3.20
2023-04-27T00:33:56.437Z,3.07
2023-04-27T00:39:01.336Z,3.20
2023-04-27T00:44:04.874Z,2.97
2023-04-27T00:49:08.287Z,3.13
2023-04-27T00:54:13.908Z,3.00
2023-04-27T00:59:17.386Z,2.83
2023-04-27T01:04:21.862Z,3.13
2023-04-27T01:09:27.425Z,3.30
2023-04-27T01:14:31.416Z,3.20
2023-04-27T01:19:36.147Z,3.20
2023-04-27T01:24:41.596Z,3.37
2023-04-27T01:29:45.048Z,3.70
2023-04-27T01:34:48.524Z,3.47
2023-04-27T01:39:53.591Z,3.47
2023-04-27T01:44:57.149Z,3.63
2023-04-27T01:50:00.657Z,3.23
2023-04-27T01:55:06.448Z,3.07
2023-04-27T02:00:10.910Z,3.90
2023-04-27T02:05:40.210Z,3.63
2023-04-27T02:10:45.303Z,3.33
2023-04-27T02:15:49.312Z,3.93
2023-04-27T02:20:52.948Z,4.20
2023-04-27T02:25:57.697Z,3.53
2023-04-27T02:31:01.626Z,3.17
2023-04-27T02:36:05.282Z,3.70
2023-04-27T02:41:10.235Z,3.60
2023-04-27T02:46:14.298Z,3.67
2023-04-27T02:51:17.732Z,3.30
2023-04-27T02:56:22.776Z,3.20
2023-04-27T03:01:26.677Z,3.70
2023-04-27T03:06:30.196Z,3.13
2023-04-27T03:11:53.795Z,3.40
2023-04-27T03:16:57.736Z,3.37
2023-04-27T03:22:01.385Z,3.20
2023-04-27T03:27:06.532Z,3.43
2023-04-27T03:32:10.408Z,2.77
2023-04-27T03:37:14.772Z,3.67
2023-04-27T03:42:19.750Z,3.87
2023-04-27T03:47:23.759Z,2.80
2023-04-27T03:52:27.643Z,3.40
2023-04-27T03:57:33.228Z,3.00
2023-04-27T04:02:36.978Z,3.37
2023-04-27T04:07:41.725Z,3.13
2023-04-27T04:12:46.630Z,4.13
2023-04-27T04:17:50.254Z,3.57
2023-04-27T04:22:55.723Z,3.30
2023-04-27T04:28:01.142Z,3.33
2023-04-27T04:33:04.873Z,3.07
2023-04-27T04:38:08.677Z,3.33
2023-04-27T04:43:17.083Z,3.20
2023-04-27T04:48:21.252Z,3.33
2023-04-27T04:53:24.761Z,3.50
2023-04-27T04:58:30.165Z,3.07
2023-04-27T05:03:34.157Z,3.30
2023-04-27T05:08:37.453Z,4.10
2023-04-27T05:13:42.766Z,3.17
2023-04-27T05:18:46.474Z,3.17
2023-04-27T05:23:50.010Z,4.43
2023-04-27T05:28:55.179Z,3.63
2023-04-27T05:34:02.909Z,2.73
2023-04-27T05:39:06.335Z,3.00
2023-04-27T05:44:11.298Z,2.97
2023-04-27T05:49:15.446Z,2.93
2023-04-27T05:54:18.866Z,2.90
2023-04-27T05:59:23.662Z,3.80
2023-04-27T06:04:27.192Z,3.77
2023-04-27T06:09:31.920Z,4.57
2023-04-27T06:15:00.587Z,2.90
2023-04-27T06:20:07.513Z,3.30
2023-04-27T06:25:11.024Z,3.10
2023-04-27T06:30:14.736Z,3.30
2023-04-27T06:35:22.117Z,3.40
2023-04-27T06:40:25.945Z,3.03
2023-04-27T06:45:29.441Z,3.57
2023-04-27T06:50:34.251Z,3.60
2023-04-27T06:55:38.002Z,3.40
2023-04-27T07:00:41.512Z,3.73
2023-04-27T07:05:46.991Z,2.83
2023-04-27T07:10:51.396Z,3.30
2023-04-27T07:15:59.114Z,3.73
2023-04-27T07:21:04.314Z,3.33
2023-04-27T07:26:08.319Z,3.30
2023-04-27T07:31:11.985Z,2.93
2023-04-27T07:36:17.975Z,3.20
2023-04-27T07:41:23.983Z,3.43
2023-04-27T07:46:27.448Z,2.77
2023-04-27T07:51:34.717Z,3.40
2023-04-27T07:56:38.356Z,3.20
2023-04-27T08:01:42.393Z,3.20
2023-04-27T08:06:47.927Z,3.37
2023-04-27T08:11:53.170Z,3.00
2023-04-27T08:16:56.929Z,3.37
2023-04-27T08:22:02.669Z,2.90
2023-04-27T08:27:07.160Z,3.43
2023-04-27T08:32:11.803Z,3.23
2023-04-27T08:37:18.800Z,3.43
2023-04-27T08:42:22.280Z,3.43
2023-04-27T08:47:34.691Z,3.20
2023-04-27T08:52:47.078Z,3.40
2023-04-27T08:57:56.269Z,3.97
2023-04-27T09:23:30.411Z,3.90
2023-04-27T09:28:34.441Z,3.97
2023-04-27T09:33:38.170Z,2.90
2023-04-27T09:38:43.492Z,3.40
2023-04-27T09:43:47.359Z,3.27
2023-04-27T09:48:51.772Z,3.33
2023-04-27T09:53:59.031Z,2.63
2023-04-27T09:59:20.267Z,3.03
2023-04-27T10:04:32.028Z,3.43
2023-04-27T10:09:38.686Z,3.30
2023-04-27T10:14:50.050Z,3.23
2023-04-27T10:19:58.755Z,3.30
2023-04-27T10:25:14.289Z,3.47
2023-04-27T10:30:19.477Z,3.47
2023-04-27T10:35:23.221Z,3.33
2023-04-27T10:40:33.978Z,3.50
2023-04-27T10:45:37.448Z,3.17
2023-04-27T10:50:41.408Z,3.00
2023-04-27T10:55:46.967Z,3.60
2023-04-27T11:00:50.654Z,3.60
2023-04-27T11:06:01.270Z,3.40
2023-04-27T11:11:06.819Z,3.07
2023-04-27T11:16:11.559Z,3.20
2023-04-27T11:21:17.029Z,3.30
2023-04-27T11:26:24.235Z,2.97
2023-04-27T11:31:27.811Z,3.67
2023-04-27T11:36:31.980Z,3.17
2023-04-27T11:41:37.619Z,3.60
2023-04-27T11:46:42.507Z,3.47
2023-04-27T11:51:48.265Z,2.93
2023-04-27T11:56:53.356Z,2.80
2023-04-27T12:01:57.336Z,3.10
2023-04-27T12:07:02.730Z,2.80
2023-04-27T12:12:08.616Z,2.73
2023-04-27T12:17:12.341Z,2.73
2023-04-27T12:22:16.127Z,3.23
2023-04-27T12:27:21.331Z,2.87
2023-04-27T12:32:25.089Z,2.90
2023-04-27T12:37:28.658Z,2.80
2023-04-27T12:42:34.052Z,3.20
2023-04-27T12:47:58.177Z,3.47
2023-04-27T12:53:01.629Z,2.87
2023-04-27T12:58:06.483Z,2.87
2023-04-27T13:03:10.404Z,2.60
2023-04-27T13:08:14.047Z,1.90
2023-04-27T13:13:18.994Z,2.33
2023-04-27T13:18:22.607Z,2.20
2023-04-27T13:23:26.626Z,2.00
2023-04-27T13:28:31.469Z,1.73
2023-04-27T13:33:42.621Z,1.77
2023-04-27T13:38:46.184Z,2.53
2023-04-27T13:43:51.003Z,2.80
2023-04-27T13:48:54.597Z,1.87
2023-04-27T13:53:57.955Z,3.23
2023-04-27T13:59:03.936Z,2.00
2023-04-27T14:04:07.644Z,2.00
2023-04-27T14:09:11.284Z,2.13
2023-04-27T14:14:16.058Z,1.83
2023-04-27T14:19:20.825Z,1.77
2023-04-27T14:24:24.153Z,2.27
2023-04-27T14:29:28.901Z,1.80
2023-04-27T14:34:32.326Z,2.03
2023-04-27T14:39:35.890Z,2.00
2023-04-27T14:44:40.555Z,1.80
2023-04-27T14:49:43.938Z,1.80
2023-04-27T14:54:47.283Z,2.00
2023-04-27T14:59:51.983Z,1.60
2023-04-27T15:04:55.738Z,1.80
2023-04-27T15:09:59.245Z,2.00
2023-04-27T15:15:04.825Z,1.77
2023-04-27T15:20:08.902Z,1.73
2023-04-27T15:25:12.242Z,1.63
2023-04-27T15:30:17.521Z,1.80
2023-04-27T15:35:20.823Z,1.53
2023-04-27T15:40:24.445Z,1.97
2023-04-27T15:45:29.819Z,1.83
2023-04-27T15:50:33.320Z,1.77
2023-04-27T15:55:36.861Z,1.67
2023-04-27T16:00:41.596Z,1.70
2023-04-27T16:05:44.931Z,1.80
2023-04-27T16:10:48.288Z,1.90
2023-04-27T16:15:52.957Z,1.90
2023-04-27T16:20:56.445Z,1.70
2023-04-27T16:25:59.754Z,1.80
2023-04-27T16:31:04.626Z,1.90
2023-04-27T16:36:08.457Z,1.83
2023-04-27T16:41:11.811Z,1.60
2023-04-27T16:46:17.388Z,1.80
2023-04-27T16:51:20.721Z,1.80
2023-04-27T16:56:26.435Z,4.67
2023-04-27T17:01:31.101Z,2.57
2023-04-27T17:06:34.864Z,2.10
2023-04-27T17:11:38.315Z,1.80
2023-04-27T17:16:43.523Z,2.10
2023-04-27T17:21:46.765Z,1.67
2023-04-27T17:26:50.122Z,2.13
2023-04-27T17:31:54.950Z,2.20
2023-04-27T17:36:58.353Z,1.40
2023-04-27T17:42:01.734Z,1.50
2023-04-27T17:47:06.871Z,1.60
2023-04-27T17:52:10.358Z,2.13
2023-04-27T17:57:13.746Z,1.70
2023-04-27T18:02:19.091Z,2.10
2023-04-27T18:07:22.601Z,2.07
2023-04-27T18:12:25.891Z,1.80
2023-04-27T18:17:30.728Z,1.80
2023-04-27T18:22:35.793Z,1.50
2023-04-27T18:27:39.195Z,1.67
2023-04-27T18:32:43.897Z,1.83
2023-04-27T18:37:48.466Z,2.37
2023-04-27T18:42:54.840Z,1.97
2023-04-27T18:47:59.542Z,2.10
2023-04-27T18:53:02.964Z,2.33
2023-04-27T18:58:06.378Z,2.70
2023-04-27T19:03:11.430Z,3.83
2023-04-27T19:08:14.755Z,3.63
2023-04-27T19:13:18.177Z,3.83
2023-04-27T19:18:23.101Z,3.87
2023-04-27T19:23:26.509Z,4.00
2023-04-27T19:28:30.142Z,4.30
2023-04-27T19:33:35.037Z,4.33
2023-04-27T19:38:38.484Z,4.77
2023-04-27T19:43:42.046Z,4.60
2023-04-27T19:48:46.809Z,4.40
2023-04-27T19:53:50.210Z,5.10
2023-04-27T19:58:53.659Z,3.93
2023-04-27T20:03:58.559Z,3.87
2023-04-27T20:09:02.382Z,3.30
2023-04-27T20:14:05.841Z,4.07
2023-04-27T20:19:11.509Z,3.97
2023-04-27T20:24:15.330Z,4.57
2023-04-27T20:29:37.805Z,4.03
2023-04-27T20:34:42.881Z,3.90
2023-04-27T20:39:46.440Z,3.73
2023-04-27T20:44:51.048Z,4.30
2023-04-27T20:49:56.337Z,4.37
2023-04-27T20:55:00.114Z,4.60
2023-04-27T21:00:04.170Z,5.10
2023-04-27T21:05:09.371Z,4.17
2023-04-27T21:10:13.056Z,4.90
2023-04-27T21:15:16.562Z,5.23
2023-04-27T21:20:21.507Z,4.63
2023-04-27T21:25:25.102Z,5.10
2023-04-27T21:30:47.196Z,5.13
2023-04-27T21:35:52.540Z,4.87
2023-04-27T21:40:55.914Z,6.87
2023-04-27T21:45:59.840Z,6.13
2023-04-27T21:51:06.267Z,7.03
2023-04-27T21:56:28.634Z,5.83
2023-04-27T22:01:32.045Z,5.83
2023-04-27T22:06:55.454Z,5.80
2023-04-27T22:12:17.755Z,5.33
2023-04-27T22:17:21.372Z,5.60
2023-04-27T22:22:45.009Z,4.80
2023-04-27T22:27:49.041Z,4.50
2023-04-27T22:33:11.404Z,4.47
2023-04-27T22:38:34.819Z,4.57
2023-04-27T22:43:38.311Z,4.27
2023-04-27T22:48:41.960Z,3.77
2023-04-27T22:54:05.075Z,4.13
2023-04-27T22:59:27.089Z,4.27
2023-04-27T23:04:49.918Z,4.07
2023-04-27T23:09:55.054Z,3.67
2023-04-27T23:14:58.220Z,3.67
2023-04-27T23:20:06.888Z,3.97
2023-04-27T23:25:13.156Z,3.57
2023-04-27T23:30:16.749Z,4.30
2023-04-27T23:35:20.227Z,3.93
2023-04-27T23:40:25.236Z,3.83
2023-04-27T23:45:28.653Z,3.63
2023-04-27T23:50:32.645Z,3.93
2023-04-27T23:55:37.634Z,3.53
